createdAt,value
2022-08-23T00:02:10.133Z,78.48
2022-08-23T00:05:03.640Z,79.28
2022-08-23T00:07:44.095Z,78.23
2022-08-23T00:10:16.093Z,74.58
2022-08-23T00:12:47.272Z,73.51
2022-08-23T00:15:19.472Z,70.25
2022-08-23T00:17:48.181Z,71.38
2022-08-23T00:20:20.324Z,71.01
2022-08-23T00:22:48.593Z,70.83
2022-08-23T00:25:17.035Z,72.72
2022-08-23T00:27:45.274Z,70.18
2022-08-23T00:30:15.856Z,72.79
2022-08-23T00:32:45.393Z,73.02
2022-08-23T00:35:27.087Z,76.07
2022-08-23T00:38:34.272Z,76.22
2022-08-23T00:40:52.030Z,76.88
2022-08-23T00:43:50.285Z,78.84
2022-08-23T00:47:24.419Z,78.86
2022-08-23T00:50:04.635Z,79.27
2022-08-23T00:53:23.068Z,76.52
2022-08-23T00:55:57.994Z,78.70
2022-08-23T00:58:26.670Z,77.83
2022-08-23T01:00:59.670Z,78.23
2022-08-23T01:03:38.921Z,75.72
2022-08-23T01:06:35.089Z,75.69
2022-08-23T01:09:13.167Z,73.31
2022-08-23T01:11:56.165Z,71.67
2022-08-23T01:14:44.750Z,74.89
2022-08-23T01:17:22.545Z,76.34
2022-08-23T01:19:57.475Z,75.58
2022-08-23T01:23:02.412Z,76.71
2022-08-23T01:25:33.997Z,76.64
2022-08-23T01:28:02.400Z,77.53
2022-08-23T01:30:34.099Z,78.29
2022-08-23T01:33:07.536Z,77.53
2022-08-23T01:35:46.669Z,75.81
2022-08-23T01:38:16.325Z,77.82
2022-08-23T01:40:45.260Z,78.01
2022-08-23T01:43:16.011Z,78.10
2022-08-23T01:45:44.251Z,77.83
2022-08-23T01:48:19.330Z,79.30
2022-08-23T01:50:47.999Z,78.94
2022-08-23T01:53:16.412Z,79.21
2022-08-23T01:55:49.163Z,78.74
2022-08-23T01:58:19.554Z,79.72
2022-08-23T02:00:47.912Z,79.62
2022-08-23T02:03:17.176Z,80.20
2022-08-23T02:05:45.925Z,80.06
2022-08-23T02:08:33.230Z,79.70
2022-08-23T02:11:17.390Z,77.27
2022-08-23T02:13:50.819Z,79.29
2022-08-23T02:16:28.912Z,79.43
2022-08-23T02:18:58.409Z,78.89
2022-08-23T02:21:26.704Z,79.24
2022-08-23T02:23:54.932Z,79.02
2022-08-23T02:26:30.977Z,79.60
2022-08-23T02:28:59.669Z,78.68
2022-08-23T02:31:28.231Z,79.86
2022-08-23T02:33:57.170Z,79.33
2022-08-23T02:36:30.030Z,77.47
2022-08-23T02:38:58.601Z,77.49
2022-08-23T02:41:27.796Z,75.38
2022-08-23T02:43:56.783Z,73.30
2022-08-23T02:46:25.879Z,72.45
2022-08-23T02:48:55.310Z,73.20
2022-08-23T02:51:24.815Z,72.64
2022-08-23T02:53:53.493Z,74.76
2022-08-23T02:56:24.094Z,74.31
2022-08-23T02:58:54.681Z,75.50
2022-08-23T03:01:29.472Z,74.49
2022-08-23T03:04:09.367Z,75.01
2022-08-23T03:06:39.053Z,73.27
2022-08-23T03:09:08.373Z,71.52
2022-08-23T03:11:36.761Z,71.24
2022-08-23T03:14:05.065Z,71.56
2022-08-23T03:16:33.407Z,71.59
2022-08-23T03:19:02.487Z,71.56
2022-08-23T03:21:31.753Z,71.76
2022-08-23T03:24:02.662Z,72.86
2022-08-23T03:26:35.716Z,74.28
2022-08-23T03:29:04.555Z,74.43
2022-08-23T03:31:39.899Z,75.50
2022-08-23T03:34:12.293Z,74.37
2022-08-23T03:36:40.821Z,73.71
2022-08-23T03:39:09.158Z,71.58
2022-08-23T03:41:37.382Z,71.85
2022-08-23T03:44:05.741Z,72.35
2022-08-23T03:46:37.908Z,70.07
2022-08-23T03:49:06.313Z,72.67
2022-08-23T03:51:44.481Z,76.83
2022-08-23T03:54:12.852Z,80.11
2022-08-23T03:57:03.143Z,81.63
2022-08-23T03:59:37.923Z,82.38
2022-08-23T04:02:10.036Z,81.62
2022-08-23T04:04:38.502Z,80.92
2022-08-23T04:07:26.200Z,80.65
2022-08-23T04:09:57.234Z,76.36
2022-08-23T04:12:28.684Z,76.23
2022-08-23T04:14:57.533Z,75.75
2022-08-23T04:17:26.535Z,80.83
2022-08-23T04:19:55.004Z,80.08
2022-08-23T04:22:24.501Z,80.63
2022-08-23T04:24:52.836Z,81.32
2022-08-23T04:27:22.916Z,81.89
2022-08-23T04:29:51.151Z,82.17
2022-08-23T04:32:26.619Z,80.00
2022-08-23T04:34:58.328Z,80.68
2022-08-23T04:37:28.090Z,81.98
2022-08-23T04:40:15.309Z,82.15
2022-08-23T04:42:44.406Z,79.19
2022-08-23T04:45:14.257Z,76.15
2022-08-23T04:47:46.378Z,80.00
2022-08-23T04:50:14.564Z,81.38
2022-08-23T04:53:01.590Z,81.17
2022-08-23T04:55:32.248Z,80.19
2022-08-23T04:58:09.752Z,81.50
2022-08-23T05:00:51.843Z,79.20
2022-08-23T05:03:25.766Z,80.76
2022-08-23T05:05:55.644Z,80.15
2022-08-23T05:08:29.148Z,82.79
2022-08-23T05:11:02.418Z,83.01
2022-08-23T05:13:31.842Z,84.30
2022-08-23T05:16:06.032Z,84.31
2022-08-23T05:18:38.229Z,84.85
2022-08-23T05:21:07.132Z,83.80
2022-08-23T05:23:35.491Z,84.52
2022-08-23T05:26:13.085Z,85.63
2022-08-23T05:28:47.976Z,85.59
2022-08-23T05:31:23.976Z,84.99
2022-08-23T05:33:55.315Z,84.30
2022-08-23T05:36:34.706Z,83.93
2022-08-23T05:39:02.962Z,83.91
2022-08-23T05:41:38.364Z,82.99
2022-08-23T05:44:10.588Z,84.41
2022-08-23T05:46:43.729Z,84.54
2022-08-23T05:49:36.637Z,84.22
2022-08-23T05:52:11.916Z,84.72
2022-08-23T05:54:42.067Z,84.88
2022-08-23T05:57:29.269Z,84.11
2022-08-23T05:59:57.540Z,83.25
2022-08-23T06:02:25.850Z,84.17
2022-08-23T06:04:57.308Z,83.39
2022-08-23T06:07:25.934Z,83.59
2022-08-23T06:09:55.578Z,83.91
2022-08-23T06:12:25.273Z,83.47
2022-08-23T06:14:53.520Z,83.12
2022-08-23T06:17:21.966Z,82.80
2022-08-23T06:19:50.264Z,82.37
2022-08-23T06:22:25.800Z,82.00
2022-08-23T06:24:54.244Z,82.70
2022-08-23T06:27:35.524Z,82.48
2022-08-23T06:30:04.241Z,81.00
2022-08-23T06:32:32.471Z,80.91
2022-08-23T06:35:39.299Z,79.84
2022-08-23T06:38:14.225Z,78.56
2022-08-23T06:40:51.795Z,78.84
2022-08-23T06:43:30.626Z,80.45
2022-08-23T06:46:30.513Z,77.88
2022-08-23T06:49:00.843Z,77.69
2022-08-23T06:51:37.458Z,78.35
2022-08-23T06:54:26.590Z,76.78
2022-08-23T06:57:13.549Z,76.50
2022-08-23T06:59:51.584Z,77.33
2022-08-23T07:02:34.150Z,78.05
2022-08-23T07:05:02.343Z,76.34
2022-08-23T07:07:44.199Z,75.17
2022-08-23T07:10:15.015Z,73.99
2022-08-23T07:12:43.504Z,73.87
2022-08-23T07:15:13.010Z,75.75
2022-08-23T07:17:44.607Z,74.22
2022-08-23T07:20:13.777Z,75.07
2022-08-23T07:22:44.622Z,76.59
2022-08-23T07:25:14.482Z,76.75
2022-08-23T07:27:46.922Z,74.76
2022-08-23T07:30:16.947Z,74.29
2022-08-23T07:32:46.375Z,77.15
2022-08-23T07:35:25.479Z,76.67
2022-08-23T07:37:57.971Z,77.08
2022-08-23T07:40:33.534Z,74.99
2022-08-23T07:43:05.421Z,77.65
2022-08-23T07:45:40.751Z,76.44
2022-08-23T07:48:12.219Z,74.52
2022-08-23T07:51:06.334Z,73.93
2022-08-23T07:53:37.909Z,72.86
2022-08-23T07:56:11.582Z,76.25
2022-08-23T07:59:08.123Z,77.12
2022-08-23T08:02:02.729Z,76.58
2022-08-23T08:04:31.263Z,76.13
2022-08-23T08:07:18.176Z,75.71
2022-08-23T08:09:50.283Z,76.06
2022-08-23T08:12:18.604Z,72.68
2022-08-23T08:14:49.463Z,73.57
2022-08-23T08:17:24.187Z,71.67
2022-08-23T08:20:13.798Z,70.75
2022-08-23T08:22:51.003Z,70.84
2022-08-23T08:25:38.559Z,70.94
2022-08-23T08:28:15.547Z,68.73
2022-08-23T08:30:44.476Z,72.26
2022-08-23T08:33:13.157Z,72.80
2022-08-23T08:35:41.394Z,70.51
2022-08-23T08:38:09.733Z,68.06
2022-08-23T08:40:41.181Z,67.69
2022-08-23T08:43:34.218Z,68.66
2022-08-23T08:46:42.556Z,68.81
2022-08-23T08:49:47.236Z,68.39
2022-08-23T08:52:25.675Z,67.64
2022-08-23T08:55:08.804Z,65.37
2022-08-23T08:57:44.991Z,65.59
2022-08-23T09:00:43.498Z,66.21
2022-08-23T09:03:20.602Z,66.24
2022-08-23T09:06:03.800Z,66.33
2022-08-23T09:09:24.663Z,65.46
2022-08-23T09:12:21.022Z,64.01
2022-08-23T09:15:18.039Z,63.81
2022-08-23T09:17:56.136Z,64.03
2022-08-23T09:20:33.129Z,65.88
2022-08-23T09:23:23.320Z,64.97
2022-08-23T09:26:01.246Z,62.78
2022-08-23T09:28:37.163Z,62.96
2022-08-23T09:31:08.174Z,63.42
2022-08-23T09:33:46.126Z,64.38
2022-08-23T09:36:38.171Z,62.55
2022-08-23T09:39:31.690Z,62.67
2022-08-23T09:42:30.534Z,64.29
2022-08-23T09:45:00.492Z,63.42
2022-08-23T09:47:44.534Z,63.48
2022-08-23T09:50:51.176Z,65.19
2022-08-23T09:53:28.187Z,62.59
2022-08-23T09:56:11.472Z,61.28
2022-08-23T09:58:44.780Z,61.20
2022-08-23T10:01:16.767Z,60.95
2022-08-23T10:04:10.120Z,62.46
2022-08-23T10:06:41.996Z,60.20
2022-08-23T10:09:28.552Z,61.95
2022-08-23T10:11:59.787Z,61.12
2022-08-23T10:14:30.696Z,60.58
2022-08-23T10:17:49.754Z,60.85
2022-08-23T10:20:31.790Z,60.96
2022-08-23T10:23:33.967Z,61.26
2022-08-23T10:26:02.199Z,63.64
2022-08-23T10:29:08.461Z,63.60
2022-08-23T10:32:22.419Z,62.59
2022-08-23T10:35:16.253Z,62.88
2022-08-23T10:38:39.734Z,63.22
2022-08-23T10:41:46.090Z,61.90
2022-08-23T10:44:35.550Z,61.99
2022-08-23T10:47:33.692Z,62.83
2022-08-23T10:50:13.700Z,60.42
2022-08-23T10:52:55.804Z,58.73
2022-08-23T10:56:00.425Z,57.84
2022-08-23T10:58:56.619Z,57.68
2022-08-23T11:01:49.186Z,57.17
2022-08-23T11:05:03.029Z,56.95
2022-08-23T11:07:41.614Z,56.70
2022-08-23T11:10:39.727Z,58.31
2022-08-23T11:13:28.251Z,57.29
2022-08-23T11:16:07.380Z,57.21
2022-08-23T11:18:50.336Z,57.24
2022-08-23T11:21:32.055Z,55.70
2022-08-23T11:24:06.343Z,57.70
2022-08-23T11:26:41.599Z,58.45
2022-08-23T11:29:12.129Z,57.84
2022-08-23T11:32:01.251Z,56.12
2022-08-23T11:34:42.841Z,57.60
2022-08-23T11:37:21.843Z,56.20
2022-08-23T11:40:01.958Z,55.64
2022-08-23T11:42:38.225Z,55.48
2022-08-23T11:45:33.394Z,54.55
2022-08-23T11:48:34.977Z,55.91
2022-08-23T11:51:25.448Z,55.95
2022-08-23T11:53:53.541Z,56.61
2022-08-23T11:56:45.654Z,58.80
2022-08-23T11:59:47.378Z,57.07
2022-08-23T12:02:52.023Z,57.46
2022-08-23T12:05:41.691Z,56.12
2022-08-23T12:08:09.802Z,55.21
2022-08-23T12:10:40.861Z,55.64
2022-08-23T12:13:21.195Z,58.74
2022-08-23T12:16:28.904Z,58.15
2022-08-23T12:19:04.395Z,55.60
2022-08-23T12:21:49.597Z,58.24
2022-08-23T12:24:41.494Z,58.37
2022-08-23T12:27:50.264Z,58.51
2022-08-23T12:30:28.423Z,56.51
2022-08-23T12:33:07.242Z,55.60
2022-08-23T12:36:16.754Z,54.37
2022-08-23T12:38:57.172Z,57.06
2022-08-23T12:41:51.128Z,55.87
2022-08-23T12:44:24.135Z,56.70
2022-08-23T12:46:53.321Z,56.62
2022-08-23T12:49:33.911Z,54.59
2022-08-23T12:52:10.278Z,53.87
2022-08-23T12:54:46.506Z,52.32
2022-08-23T12:57:21.851Z,53.12
2022-08-23T13:00:16.687Z,51.96
2022-08-23T13:03:03.786Z,50.60
2022-08-23T13:05:47.980Z,52.12
2022-08-23T13:08:39.233Z,51.65
2022-08-23T13:11:10.675Z,51.83
2022-08-23T13:13:44.152Z,52.85
2022-08-23T13:16:28.982Z,51.02
2022-08-23T13:19:22.621Z,49.98
2022-08-23T13:22:25.394Z,49.74
2022-08-23T13:25:27.493Z,50.86
2022-08-23T13:28:24.232Z,52.34
2022-08-23T13:31:11.046Z,51.59
2022-08-23T13:33:41.213Z,48.32
2022-08-23T13:36:17.046Z,47.20
2022-08-23T13:38:45.578Z,50.10
2022-08-23T13:41:38.851Z,47.61
2022-08-23T13:44:09.724Z,46.54
2022-08-23T13:46:47.399Z,47.43
2022-08-23T13:49:22.770Z,49.50
2022-08-23T13:52:11.915Z,49.91
2022-08-23T13:54:51.255Z,47.62
2022-08-23T13:57:22.713Z,47.65
2022-08-23T13:59:58.694Z,45.46
2022-08-23T14:02:26.899Z,46.06
2022-08-23T14:04:55.412Z,45.58
2022-08-23T14:07:23.644Z,45.78
2022-08-23T14:09:54.923Z,50.08
2022-08-23T14:12:29.711Z,51.06
2022-08-23T14:15:01.202Z,50.59
2022-08-23T14:17:35.659Z,50.48
2022-08-23T14:22:54.002Z,51.03
2022-08-23T14:25:22.246Z,49.10
2022-08-23T14:27:51.028Z,50.59
2022-08-23T14:30:36.221Z,47.74
2022-08-23T14:33:06.289Z,45.67
2022-08-23T14:35:34.831Z,46.27
2022-08-23T14:38:04.534Z,44.99
2022-08-23T14:40:36.234Z,45.12
2022-08-23T14:43:06.083Z,44.83
2022-08-23T14:45:34.281Z,45.60
2022-08-23T14:48:02.742Z,49.20
2022-08-23T14:50:31.269Z,48.14
2022-08-23T14:53:04.536Z,46.97
2022-08-23T14:55:33.249Z,46.18
2022-08-23T14:58:01.882Z,46.50
2022-08-23T15:00:32.565Z,45.67
2022-08-23T15:03:09.772Z,46.44
2022-08-23T15:05:38.498Z,46.84
2022-08-23T15:08:06.687Z,45.85
2022-08-23T15:10:52.927Z,45.81
2022-08-23T15:13:31.226Z,48.27
2022-08-23T15:16:06.265Z,47.14
2022-08-23T15:18:37.553Z,46.85
2022-08-23T15:21:06.346Z,46.87
2022-08-23T15:23:34.547Z,46.44
2022-08-23T15:26:03.481Z,45.70
2022-08-23T15:28:31.806Z,47.68
2022-08-23T15:31:00.591Z,47.22
2022-08-23T15:33:30.782Z,48.84
2022-08-23T15:36:02.079Z,48.38
2022-08-23T15:38:32.224Z,47.68
2022-08-23T15:41:01.546Z,47.05
2022-08-23T15:43:34.622Z,48.21
2022-08-23T15:46:19.691Z,48.03
2022-08-23T15:48:59.747Z,48.72
2022-08-23T15:51:29.004Z,50.40
2022-08-23T15:53:57.854Z,51.71
2022-08-23T15:56:41.331Z,51.21
2022-08-23T15:59:21.675Z,49.31
2022-08-23T16:01:50.111Z,47.99
2022-08-23T16:04:18.687Z,47.26
2022-08-23T16:06:47.336Z,47.72
2022-08-23T16:09:23.545Z,49.69
2022-08-23T16:11:51.964Z,49.21
2022-08-23T16:14:20.259Z,48.74
2022-08-23T16:16:48.616Z,51.53
2022-08-23T16:19:17.009Z,51.29
2022-08-23T16:21:45.345Z,52.00
2022-08-23T16:24:14.098Z,49.40
2022-08-23T16:26:45.528Z,48.45
2022-08-23T16:29:17.499Z,48.45
2022-08-23T16:31:47.541Z,47.96
2022-08-23T16:34:18.880Z,47.62
2022-08-23T16:36:55.363Z,47.10
2022-08-23T16:39:24.207Z,47.22
2022-08-23T16:41:52.499Z,48.03
2022-08-23T16:44:21.025Z,47.97
2022-08-23T16:46:50.209Z,47.55
2022-08-23T16:49:19.109Z,47.50
2022-08-23T16:51:48.096Z,48.68
2022-08-23T16:54:19.172Z,48.93
2022-08-23T16:56:47.771Z,49.20
2022-08-23T16:59:16.626Z,48.62
2022-08-23T17:01:47.513Z,49.25
2022-08-23T17:04:18.521Z,49.25
2022-08-23T17:06:47.977Z,49.42
2022-08-23T17:09:16.905Z,49.92
2022-08-23T17:11:45.204Z,49.79
2022-08-23T17:14:13.909Z,50.59
2022-08-23T17:16:44.143Z,50.32
2022-08-23T17:19:14.359Z,50.28
2022-08-23T17:21:43.756Z,50.10
2022-08-23T17:24:11.968Z,51.17
2022-08-23T17:26:40.517Z,50.21
2022-08-23T17:29:09.579Z,49.89
2022-08-23T17:31:38.944Z,50.32
2022-08-23T17:34:07.691Z,51.25
2022-08-23T17:36:48.325Z,52.24
2022-08-23T17:39:23.333Z,51.31
2022-08-23T17:41:51.607Z,50.84
2022-08-23T17:44:20.537Z,51.52
2022-08-23T17:46:49.931Z,51.49
2022-08-23T17:49:20.254Z,51.91
2022-08-23T17:51:48.837Z,51.31
2022-08-23T17:54:18.544Z,51.41
2022-08-23T17:56:50.359Z,51.62
2022-08-23T17:59:20.876Z,51.30
2022-08-23T18:01:49.055Z,51.74
2022-08-23T18:04:17.340Z,52.31
2022-08-23T18:06:46.280Z,51.74
2022-08-23T18:09:15.147Z,51.04
2022-08-23T18:11:43.975Z,51.73
2022-08-23T18:14:12.267Z,51.32
2022-08-23T18:16:41.334Z,51.05
2022-08-23T18:19:13.466Z,51.89
2022-08-23T18:21:44.173Z,52.38
2022-08-23T18:24:13.726Z,51.35
2022-08-23T18:27:02.598Z,52.49
2022-08-23T18:29:34.652Z,52.31
2022-08-23T18:32:07.139Z,53.93
2022-08-23T18:34:36.205Z,53.33
2022-08-23T18:37:04.678Z,52.82
2022-08-23T18:39:33.785Z,52.43
2022-08-23T18:42:06.056Z,52.43
2022-08-23T18:44:34.253Z,55.06
2022-08-23T18:47:03.148Z,55.20
2022-08-23T18:49:33.777Z,55.19
2022-08-23T18:52:03.284Z,54.86
2022-08-23T18:54:34.064Z,54.20
2022-08-23T18:57:03.598Z,55.43
2022-08-23T18:59:32.632Z,55.90
2022-08-23T19:02:00.883Z,54.25
2022-08-23T19:04:30.158Z,55.14
2022-08-23T19:06:58.548Z,54.94
2022-08-23T19:09:26.975Z,55.00
2022-08-23T19:11:55.694Z,56.13
2022-08-23T19:14:24.175Z,54.57
2022-08-23T19:16:52.568Z,55.72
2022-08-23T19:19:22.381Z,57.61
2022-08-23T19:21:50.855Z,55.72
2022-08-23T19:24:19.056Z,56.59
2022-08-23T19:26:49.984Z,56.20
2022-08-23T19:29:21.829Z,55.08
2022-08-23T19:31:50.419Z,56.54
2022-08-23T19:34:20.923Z,56.87
2022-08-23T19:36:56.771Z,58.70
2022-08-23T19:39:29.881Z,57.88
2022-08-23T19:41:58.966Z,56.25
2022-08-23T19:44:28.239Z,56.12
2022-08-23T19:46:57.419Z,57.35
2022-08-23T19:49:25.566Z,58.43
2022-08-23T19:51:54.051Z,56.83
2022-08-23T19:54:22.277Z,62.37
2022-08-23T19:56:59.479Z,60.67
2022-08-23T19:59:34.991Z,61.17
2022-08-23T20:02:03.658Z,61.28
2022-08-23T20:04:34.366Z,60.29
2022-08-23T20:07:04.952Z,60.78
2022-08-23T20:09:34.777Z,60.81
2022-08-23T20:12:03.464Z,60.88
2022-08-23T20:14:33.613Z,60.84
2022-08-23T20:17:04.481Z,63.02
2022-08-23T20:19:33.533Z,61.73
2022-08-23T20:25:16.234Z,60.22
2022-08-23T20:27:45.301Z,64.05
2022-08-23T20:30:14.860Z,62.41
2022-08-23T20:32:44.072Z,60.20
2022-08-23T20:35:12.636Z,61.27
2022-08-23T20:37:41.022Z,59.64
2022-08-23T20:40:10.458Z,61.51
2022-08-23T20:42:40.160Z,61.04
2022-08-23T20:45:09.179Z,61.30
2022-08-23T20:47:37.399Z,60.01
2022-08-23T20:50:06.243Z,60.62
2022-08-23T20:52:35.037Z,59.69
2022-08-23T20:55:09.574Z,63.22
2022-08-23T20:57:39.265Z,62.17
2022-08-23T21:00:08.609Z,60.14
2022-08-23T21:02:36.914Z,61.80
2022-08-23T21:05:06.599Z,62.59
2022-08-23T21:07:35.241Z,62.59
2022-08-23T21:10:05.613Z,61.55
2022-08-23T21:12:35.053Z,61.12
2022-08-23T21:15:06.861Z,59.92
2022-08-23T21:17:38.489Z,61.42
2022-08-23T21:20:08.044Z,61.67
2022-08-23T21:22:36.361Z,62.16
2022-08-23T21:25:05.874Z,61.65
2022-08-23T21:27:34.675Z,61.64
2022-08-23T21:30:06.272Z,63.06
2022-08-23T21:32:34.644Z,61.34
2022-08-23T21:35:02.971Z,61.67
2022-08-23T21:37:31.360Z,62.56
2022-08-23T21:39:59.612Z,62.52
2022-08-23T21:42:27.910Z,63.72
2022-08-23T21:44:56.478Z,64.50
2022-08-23T21:47:24.755Z,63.63
2022-08-23T21:49:53.372Z,64.00
2022-08-23T21:52:22.175Z,61.84
2022-08-23T21:54:50.485Z,64.25
2022-08-23T21:57:18.736Z,63.77
2022-08-23T21:59:47.063Z,64.84
2022-08-23T22:02:15.603Z,64.37
2022-08-23T22:04:44.074Z,68.69
2022-08-23T22:07:12.282Z,64.75
2022-08-23T22:09:41.206Z,67.38
2022-08-23T22:12:09.876Z,67.05
2022-08-23T22:14:38.138Z,67.33
2022-08-23T22:17:06.712Z,71.49
2022-08-23T22:19:34.899Z,70.78
2022-08-23T22:22:03.373Z,66.87
2022-08-23T22:24:31.880Z,69.93
2022-08-23T22:27:00.471Z,68.20
2022-08-23T22:29:29.038Z,66.69
2022-08-23T22:31:57.247Z,69.01
2022-08-23T22:34:25.609Z,67.98
2022-08-23T22:36:56.192Z,67.49
2022-08-23T22:39:25.165Z,70.91
2022-08-23T22:41:54.326Z,67.47
2022-08-23T22:44:22.600Z,65.27
2022-08-23T22:46:50.779Z,66.76
2022-08-23T22:49:19.242Z,66.08
2022-08-23T22:51:49.121Z,66.65
2022-08-23T22:54:23.486Z,66.46
2022-08-23T22:56:53.302Z,67.58
2022-08-23T22:59:27.432Z,66.52
2022-08-23T23:01:58.015Z,68.44
2022-08-23T23:04:27.386Z,70.53
2022-08-23T23:06:57.714Z,70.29
2022-08-23T23:09:27.041Z,69.83
2022-08-23T23:11:55.507Z,72.04
2022-08-23T23:14:23.834Z,70.25
2022-08-23T23:16:53.327Z,71.88
2022-08-23T23:19:40.782Z,71.02
2022-08-23T23:22:09.426Z,69.36
2022-08-23T23:24:39.737Z,69.32
2022-08-23T23:27:08.588Z,70.22
2022-08-23T23:29:36.907Z,72.88
2022-08-23T23:32:05.783Z,71.27
2022-08-23T23:34:34.996Z,69.88
2022-08-23T23:37:03.443Z,70.19
2022-08-23T23:39:31.697Z,71.57
2022-08-23T23:41:59.969Z,69.90
2022-08-23T23:44:31.368Z,74.22
2022-08-23T23:47:01.758Z,70.52
2022-08-23T23:49:33.048Z,70.76
2022-08-23T23:52:04.940Z,77.20
2022-08-23T23:54:35.680Z,78.17
2022-08-23T23:57:05.838Z,75.63
2022-08-23T23:59:34.795Z,71.73
